Time;durP1;ratioP1;P1;durP2;ratioP2;P2;SDS_P1;SDS_P2;PMS_P1;PMS_P2;Temp;Humidity;BMP_temperature;BMP_pressure;BME280_temperature;BME280_humidity;BME280_pressure;Samples;Min_cycle;Max_cycle;Signal;HPM_P1;HPM_P2
2024/01/13 00:01:06;;;;;;;5.70;2.90;;;;;;;-4.35;70.87;98161.36;105473;1260;61227;-28
2024/01/13 00:03:33;;;;;;;5.30;3.50;;;;;;;-4.08;69.72;98160.05;105590;1263;73086;-28
2024/01/13 00:05:59;;;;;;;4.50;2.60;;;;;;;-4.07;69.52;98155.27;105344;1257;74374;-27
2024/01/13 00:08:27;;;;;;;4.10;3.00;;;;;;;-4.20;69.64;98142.52;105555;1262;72348;-27
2024/01/13 00:11:04;;;;;;;3.90;2.80;;;;;;;-4.35;70.78;98147.28;105608;1263;61071;-27
2024/01/13 00:13:31;;;;;;;5.80;3.70;;;;;;;-4.57;71.26;98136.53;105571;1267;61275;-26
2024/01/13 00:15:58;;;;;;;4.00;2.20;;;;;;;-4.65;71.73;98144.92;105620;1257;73670;-26
2024/01/13 00:18:25;;;;;;;3.70;2.70;;;;;;;-4.65;72.64;98127.27;105587;1263;74368;-26
2024/01/13 00:21:05;;;;;;;3.50;2.40;;;;;;;-4.02;71.28;98123.58;105578;1263;72654;-27
2024/01/13 00:23:33;;;;;;;6.40;3.80;;;;;;;-3.74;69.88;98115.58;105543;1261;60994;-26
2024/01/13 00:26:00;;;;;;;7.20;1.80;;;;;;;-3.88;69.96;98118.65;105337;1258;61207;-26
2024/01/13 00:28:27;;;;;;;4.70;2.40;;;;;;;-3.96;70.16;98113.35;105554;1261;73852;-26
2024/01/13 00:31:04;;;;;;;6.20;3.30;;;;;;;-4.13;70.49;98108.04;105401;1263;74204;-27
2024/01/13 00:33:31;;;;;;;7.60;3.80;;;;;;;-4.39;72.05;98102.35;105317;1264;72625;-26
2024/01/13 00:35:58;;;;;;;3.90;2.60;;;;;;;-4.51;72.54;98095.80;105404;1264;61980;-26
2024/01/13 00:38:25;;;;;;;5.70;3.00;;;;;;;-4.02;72.16;98085.42;105534;1257;61124;-26
2024/01/13 00:41:06;;;;;;;4.60;2.30;;;;;;;-3.64;70.95;98081.95;105585;1258;73780;-26
2024/01/13 00:43:35;;;;;;;5.30;3.60;;;;;;;-3.57;70.42;98083.02;105321;1267;74424;-27
2024/01/13 00:46:02;;;;;;;7.30;4.10;;;;;;;-3.78;70.86;98074.84;105551;1263;72570;-27
2024/01/13 00:48:29;;;;;;;5.80;4.00;;;;;;;-4.06;72.30;98065.21;105558;1258;61068;-27
2024/01/13 00:51:11;;;;;;;4.80;3.40;;;;;;;-4.24;72.85;98056.38;105374;1257;61195;-27
2024/01/13 00:53:41;;;;;;;13.10;5.00;;;;;;;-4.19;73.67;98047.55;105317;1264;73660;-27
2024/01/13 00:56:08;;;;;;;6.20;4.10;;;;;;;-3.53;71.80;98048.74;105556;1263;74613;-27
2024/01/13 00:58:39;;;;;;;4.00;2.70;;;;;;;-3.36;70.96;98048.94;105601;1263;73321;-26
2024/01/13 01:01:12;;;;;;;4.40;2.80;;;;;;;-3.46;70.77;98039.16;105236;1258;61189;-27
2024/01/13 01:03:41;;;;;;;7.00;4.10;;;;;;;-3.65;71.53;98030.23;105305;1257;61065;-27
2024/01/13 01:06:08;;;;;;;5.10;3.70;;;;;;;-3.91;72.31;98030.04;105568;1263;74278;-26
2024/01/13 01:08:35;;;;;;;4.90;3.20;;;;;;;-4.05;72.94;98027.55;105626;1262;74345;-27
2024/01/13 01:11:07;;;;;;;3.40;2.50;;;;;;;-3.95;73.71;98024.45;105487;1263;72625;-27
2024/01/13 01:13:35;;;;;;;6.60;3.20;;;;;;;-3.32;72.12;98021.41;105513;1263;61224;-27
2024/01/13 01:16:02;;;;;;;4.30;3.00;;;;;;;-3.23;71.51;98013.27;105602;1270;61701;-27
2024/01/13 01:18:28;;;;;;;3.00;2.20;;;;;;;-3.26;71.54;98010.49;105590;1261;73907;-26
2024/01/13 01:21:10;;;;;;;8.20;4.10;;;;;;;-3.47;72.10;97999.47;105625;1258;74329;-27
2024/01/13 01:23:38;;;;;;;9.00;3.90;;;;;;;-3.71;73.14;97987.20;105415;1264;72498;-27
2024/01/13 01:26:06;;;;;;;7.00;2.70;;;;;;;-3.90;74.33;97991.20;105605;1264;61231;-27
2024/01/13 01:28:33;;;;;;;5.90;3.50;;;;;;;-3.62;74.61;97989.23;105567;1258;61115;-26
2024/01/13 01:31:06;;;;;;;6.50;3.30;;;;;;;-3.11;72.98;97974.05;105629;1262;72531;-26
2024/01/13 01:33:34;;;;;;;5.20;3.70;;;;;;;-3.05;72.40;97972.42;105404;1263;74736;-27
2024/01/13 01:36:02;;;;;;;6.50;2.90;;;;;;;-3.18;72.47;97961.44;105583;1263;72743;-27
2024/01/13 01:38:29;;;;;;;5.30;3.60;;;;;;;-3.33;73.37;97974.30;105600;1258;61014;-26
2024/01/13 01:41:10;;;;;;;9.80;5.10;;;;;;;-3.52;74.03;97963.20;105617;1262;61157;-26
2024/01/13 01:43:37;;;;;;;8.10;3.30;;;;;;;-3.70;74.90;97960.70;105410;1263;73768;-27
2024/01/13 01:46:04;;;;;;;7.20;4.00;;;;;;;-3.31;74.27;97945.86;105577;1263;74301;-27
2024/01/13 01:48:34;;;;;;;10.20;5.70;;;;;;;-2.80;72.76;97940.61;105624;1257;72526;-27
2024/01/13 01:51:09;;;;;;;7.50;3.00;;;;;;;-2.84;72.51;97927.73;105142;1257;61061;-27
2024/01/13 01:53:36;;;;;;;5.40;3.50;;;;;;;-2.93;72.59;97934.70;105290;1267;61111;-27
2024/01/13 01:56:06;;;;;;;6.60;4.30;;;;;;;-3.13;73.56;97936.64;105308;1257;73939;-27
2024/01/13 01:58:33;;;;;;;5.80;3.80;;;;;;;-3.29;74.39;97932.03;105357;1262;74316;-27
2024/01/13 02:01:02;;;;;;;8.00;3.80;;;;;;;-3.43;75.22;97928.21;105581;1259;72720;-27
2024/01/13 02:03:30;;;;;;;7.30;3.10;;;;;;;-3.21;75.74;97919.98;105564;1260;61119;-27
2024/01/13 02:05:58;;;;;;;11.70;6.00;;;;;;;-2.66;73.93;97914.16;105823;1257;61105;-27
2024/01/13 02:08:25;;;;;;;5.40;3.50;;;;;;;-2.63;73.98;97903.33;105865;1257;73546;-27
2024/01/13 02:11:06;;;;;;;8.10;5.00;;;;;;;-2.69;74.59;97898.83;105397;1254;74420;-27
2024/01/13 02:13:33;;;;;;;7.60;4.30;;;;;;;-2.83;75.12;97904.05;105857;1254;72717;-27
2024/01/13 02:16:00;;;;;;;5.90;4.10;;;;;;;-3.02;76.33;97901.98;105697;1259;61164;-27
2024/01/13 02:18:27;;;;;;;7.10;3.80;;;;;;;-3.04;76.91;97899.73;105746;1254;61105;-27
2024/01/13 02:21:06;;;;;;;5.60;3.90;;;;;;;-2.64;76.03;97890.11;105713;1260;73538;-27
2024/01/13 02:23:33;;;;;;;6.60;3.70;;;;;;;-2.26;74.74;97888.54;105557;1256;74392;-27
2024/01/13 02:26:00;;;;;;;6.90;4.30;;;;;;;-2.35;74.54;97891.67;105847;1255;72336;-27
2024/01/13 02:28:27;;;;;;;6.10;3.60;;;;;;;-2.55;75.07;97892.92;105772;1254;61046;-27
2024/01/13 02:31:10;;;;;;;11.10;4.40;;;;;;;-2.79;76.27;97883.34;105855;1257;61062;-27
2024/01/13 02:33:38;;;;;;;7.80;3.60;;;;;;;-2.95;76.78;97875.89;105902;1254;73550;-27
2024/01/13 02:36:06;;;;;;;7.90;2.80;;;;;;;-2.70;77.04;97875.94;105861;1255;74455;-27
2024/01/13 02:38:33;;;;;;;7.20;4.70;;;;;;;-2.30;75.89;97873.21;105874;1259;72631;-27
2024/01/13 02:41:07;;;;;;;6.60;4.30;;;;;;;-2.29;75.91;97869.80;105840;1253;61134;-27
2024/01/13 02:43:36;;;;;;;5.70;3.90;;;;;;;-2.39;76.25;97870.09;105867;1255;61057;-27
2024/01/13 02:46:03;;;;;;;7.40;4.00;;;;;;;-2.51;76.79;97869.79;105711;1261;72312;-27
2024/01/13 02:48:51;;;;;;;3.50;2.90;;;;;;;-2.63;77.44;97864.91;105909;1254;73319;-28
2024/01/13 02:51:19;;;;;;;6.90;3.00;;;;;;;-2.73;78.74;97864.69;105676;1254;73013;-27
2024/01/13 02:53:46;;;;;;;9.40;4.30;;;;;;;-2.15;76.90;97861.80;105838;1257;60978;-27
2024/01/13 02:56:15;;;;;;;8.00;5.40;;;;;;;-2.12;76.27;97862.84;105907;1257;61094;-27
2024/01/13 02:58:41;;;;;;;8.00;5.00;;;;;;;-2.15;76.67;97855.68;105713;1255;73668;-27
2024/01/13 03:01:13;;;;;;;10.10;5.10;;;;;;;-2.31;77.29;97853.40;105637;1257;73172;-27
2024/01/13 03:03:41;;;;;;;10.20;5.90;;;;;;;-2.57;78.82;97848.67;105668;1259;72659;-27
2024/01/13 03:06:08;;;;;;;8.60;4.90;;;;;;;-2.48;79.09;97841.29;105634;1260;61150;-27
2024/01/13 03:08:35;;;;;;;9.40;6.00;;;;;;;-2.02;77.85;97839.91;105835;1265;61093;-27
2024/01/13 03:11:10;;;;;;;8.30;5.10;;;;;;;-1.90;77.28;97839.86;105667;1254;73781;-27
2024/01/13 03:13:37;;;;;;;7.90;5.00;;;;;;;-2.02;77.95;97829.69;105700;1254;73194;-27
2024/01/13 03:16:05;;;;;;;12.40;5.40;;;;;;;-2.15;79.00;97826.24;105756;1254;72625;-27
2024/01/13 03:18:33;;;;;;;10.50;5.60;;;;;;;-2.16;79.60;97829.39;105726;1254;61136;-27
2024/01/13 03:21:08;;;;;;;8.60;5.70;;;;;;;-1.75;78.55;97826.17;105635;1261;61101;-27
2024/01/13 03:23:35;;;;;;;5.70;4.00;;;;;;;-1.62;78.13;97827.05;105489;1254;73908;-27
2024/01/13 03:26:03;;;;;;;8.40;5.50;;;;;;;-1.62;78.50;97816.99;105700;1260;74204;-27
2024/01/13 03:28:30;;;;;;;6.40;4.20;;;;;;;-1.82;79.49;97825.66;105702;1259;72808;-27
2024/01/13 03:31:08;;;;;;;7.10;4.60;;;;;;;-1.86;80.53;97816.49;105836;1258;61459;-27
2024/01/13 03:33:36;;;;;;;7.40;4.80;;;;;;;-1.47;79.76;97827.64;105837;1257;61164;-27
2024/01/13 03:36:04;;;;;;;6.70;4.50;;;;;;;-1.17;78.54;97829.14;105766;1254;73667;-27
2024/01/13 03:38:31;;;;;;;11.40;6.00;;;;;;;-1.20;78.96;97821.13;105695;1255;74405;-28
2024/01/13 03:41:09;;;;;;;8.00;4.50;;;;;;;-1.53;80.54;97812.80;105858;1258;71627;-27
2024/01/13 03:43:36;;;;;;;7.80;5.00;;;;;;;-1.51;81.27;97806.90;105849;1254;61053;-27
2024/01/13 03:46:03;;;;;;;11.20;6.30;;;;;;;-1.17;80.70;97828.13;105843;1258;61167;-27
2024/01/13 03:48:30;;;;;;;10.10;5.00;;;;;;;-1.03;80.04;97814.10;105699;1259;73810;-27
2024/01/13 03:50:59;;;;;;;7.80;5.40;;;;;;;-1.19;81.26;97810.16;105881;1254;74337;-27
2024/01/13 03:53:28;;;;;;;16.90;6.90;;;;;;;-1.37;82.90;97818.95;105667;1260;71193;-28
2024/01/13 03:55:55;;;;;;;6.80;4.40;;;;;;;-1.27;83.28;97818.79;105639;1259;61118;-27
2024/01/13 03:58:21;;;;;;;10.60;6.00;;;;;;;-0.89;81.10;97810.29;105850;1257;61176;-27
2024/01/13 04:00:48;;;;;;;6.20;5.00;;;;;;;-0.93;81.28;97815.61;105894;1257;73570;-27
2024/01/13 04:03:20;;;;;;;9.80;6.30;;;;;;;-0.95;81.14;97818.42;105917;1254;74715;-27
2024/01/13 04:05:47;;;;;;;9.50;5.70;;;;;;;-0.99;81.44;97825.98;105734;1255;72549;-28
2024/01/13 04:08:15;;;;;;;10.70;6.70;;;;;;;-1.12;82.34;97812.37;105813;1257;61083;-27
2024/01/13 04:10:41;;;;;;;10.50;6.80;;;;;;;-0.74;81.15;97833.18;105603;1254;61193;-27
2024/01/13 04:13:12;;;;;;;7.40;5.20;;;;;;;-0.64;80.36;97822.39;105885;1254;73642;-28
2024/01/13 04:15:39;;;;;;;8.90;5.50;;;;;;;-0.77;80.77;97820.17;105705;1255;73269;-27
2024/01/13 04:18:06;;;;;;;8.10;5.20;;;;;;;-0.72;80.34;97820.27;105819;1254;72647;-28
2024/01/13 04:20:33;;;;;;;11.70;6.30;;;;;;;-0.72;80.52;97803.91;105637;1254;61055;-27
2024/01/13 04:23:00;;;;;;;9.30;6.00;;;;;;;-0.47;79.20;97835.11;105853;1258;61113;-28
2024/01/13 04:25:27;;;;;;;8.40;5.40;;;;;;;-0.24;78.40;97833.17;105728;1254;73716;-27
2024/01/13 04:27:54;;;;;;;8.20;5.00;;;;;;;-0.35;78.54;97812.10;105849;1257;74881;-27
2024/01/13 04:30:21;;;;;;;10.40;6.90;;;;;;;-0.71;80.04;97821.10;105839;1254;72660;-27
2024/01/13 04:32:49;;;;;;;12.60;7.00;;;;;;;-0.62;80.97;97819.75;105875;1254;61160;-28
2024/01/13 04:35:16;;;;;;;11.30;6.20;;;;;;;-0.34;79.97;97822.63;105882;1257;61170;-27
2024/01/13 04:37:42;;;;;;;12.00;6.60;;;;;;;-0.25;79.79;97830.48;105847;1254;73555;-27
2024/01/13 04:40:09;;;;;;;10.50;6.80;;;;;;;-0.46;79.77;97817.50;105853;1254;74198;-27
2024/01/13 04:42:36;;;;;;;11.10;7.00;;;;;;;-0.50;80.12;97831.50;105879;1253;72699;-27
2024/01/13 04:45:04;;;;;;;8.70;6.30;;;;;;;-0.31;79.43;97821.95;105733;1259;61173;-27
2024/01/13 04:47:32;;;;;;;12.50;5.60;;;;;;;-0.07;78.24;97825.21;105617;1265;61542;-28
2024/01/13 04:49:59;;;;;;;11.60;6.70;;;;;;;0.01;77.69;97822.48;105689;1254;73762;-28
2024/01/13 04:52:26;;;;;;;10.90;6.80;;;;;;;-0.22;78.40;97817.83;105899;1254;74868;-28
2024/01/13 04:54:53;;;;;;;14.40;7.00;;;;;;;-0.38;78.69;97829.32;105836;1254;72734;-28
2024/01/13 04:57:20;;;;;;;9.10;6.50;;;;;;;-0.45;78.95;97831.94;105478;1257;61219;-27
2024/01/13 04:59:47;;;;;;;8.10;5.90;;;;;;;-0.06;77.54;97829.41;105687;1257;61089;-28
2024/01/13 05:02:14;;;;;;;9.10;5.90;;;;;;;0.05;76.67;97839.36;105830;1254;73934;-28
2024/01/13 05:04:41;;;;;;;10.40;7.00;;;;;;;-0.16;77.13;97838.49;105889;1254;74334;-28
2024/01/13 05:07:08;;;;;;;9.50;6.90;;;;;;;-0.37;78.04;97840.84;105646;1254;72967;-28
2024/01/13 05:09:35;;;;;;;10.30;7.20;;;;;;;-0.46;78.40;97847.52;105623;1254;61072;-27
2024/01/13 05:12:02;;;;;;;10.40;7.20;;;;;;;-0.54;79.99;97842.29;105730;1257;61161;-28
2024/01/13 05:14:31;;;;;;;11.60;7.30;;;;;;;-0.11;78.37;97833.61;105871;1254;73494;-28
2024/01/13 05:16:59;;;;;;;6.90;4.60;;;;;;;0.07;77.36;97836.85;105703;1254;74307;-28
2024/01/13 05:19:26;;;;;;;9.70;5.60;;;;;;;0.08;77.35;97851.48;105520;1254;72593;-28
2024/01/13 05:21:54;;;;;;;11.10;6.70;;;;;;;-0.24;78.60;97843.05;105504;1254;61122;-28
2024/01/13 05:24:20;;;;;;;11.30;6.00;;;;;;;-0.37;79.22;97858.06;105680;1258;61146;-28
2024/01/13 05:26:47;;;;;;;10.90;6.50;;;;;;;0.04;78.59;97859.39;105758;1254;74365;-28
2024/01/13 05:29:14;;;;;;;9.80;5.60;;;;;;;0.14;77.52;97851.98;105742;1254;74835;-28
2024/01/13 05:31:41;;;;;;;6.90;4.80;;;;;;;0.33;76.73;97865.40;105864;1257;72449;-28
2024/01/13 05:34:08;;;;;;;9.30;5.80;;;;;;;0.15;77.19;97867.95;105698;1254;61235;-28
2024/01/13 05:36:36;;;;;;;9.20;5.60;;;;;;;-0.02;78.38;97867.59;105685;1259;61112;-28
2024/01/13 05:39:02;;;;;;;8.40;6.00;;;;;;;-0.23;80.07;97876.08;105821;1254;74234;-28
2024/01/13 05:41:30;;;;;;;7.10;5.20;;;;;;;0.12;80.50;97877.19;105867;1254;74675;-28
2024/01/13 05:43:56;;;;;;;8.30;4.80;;;;;;;0.09;80.95;97878.35;105817;1254;72577;-28
2024/01/13 05:46:23;;;;;;;8.70;5.90;;;;;;;0.03;81.41;97878.91;105715;1254;61033;-28
2024/01/13 05:48:51;;;;;;;10.30;6.00;;;;;;;-0.35;82.09;97865.79;105620;1257;61067;-28
2024/01/13 05:51:18;;;;;;;9.10;5.60;;;;;;;-0.39;82.01;97884.63;105828;1254;73826;-28
2024/01/13 05:53:45;;;;;;;6.30;4.70;;;;;;;0.09;79.93;97876.84;105681;1254;74890;-28
2024/01/13 05:56:12;;;;;;;9.30;6.10;;;;;;;0.16;79.04;97880.50;105565;1254;72525;-28
2024/01/13 05:58:41;;;;;;;8.70;4.60;;;;;;;0.25;78.56;97878.84;105703;1257;61086;-28
2024/01/13 06:01:08;;;;;;;7.40;4.70;;;;;;;0.05;78.83;97880.97;105726;1254;61112;-28
2024/01/13 06:03:35;;;;;;;9.00;5.80;;;;;;;-0.16;80.11;97886.61;105740;1254;73753;-28
2024/01/13 06:06:03;;;;;;;9.90;6.70;;;;;;;-0.24;80.25;97874.59;105873;1257;74760;-28
2024/01/13 06:08:30;;;;;;;7.50;4.90;;;;;;;0.17;79.07;97884.59;105709;1254;72784;-29
2024/01/13 06:10:57;;;;;;;7.30;5.30;;;;;;;0.12;78.84;97894.05;105790;1257;61051;-28
2024/01/13 06:13:24;;;;;;;7.80;5.90;;;;;;;-0.05;78.87;97885.63;105759;1257;61108;-28
2024/01/13 06:15:51;;;;;;;9.20;5.70;;;;;;;-0.32;79.60;97878.06;105810;1257;73834;-28
2024/01/13 06:18:18;;;;;;;12.00;6.50;;;;;;;-0.15;79.49;97897.43;105846;1254;74340;-28
2024/01/13 06:20:45;;;;;;;7.40;5.00;;;;;;;0.19;78.03;97893.52;105876;1253;73167;-28
2024/01/13 06:23:12;;;;;;;7.60;5.30;;;;;;;0.19;77.30;97888.36;105508;1257;61063;-29
2024/01/13 06:25:39;;;;;;;9.50;6.10;;;;;;;-0.03;77.93;97901.60;105800;1256;61173;-28
2024/01/13 06:28:06;;;;;;;8.80;5.20;;;;;;;-0.18;78.43;97903.27;105793;1254;73839;-28
2024/01/13 06:30:34;;;;;;;7.30;4.80;;;;;;;-0.34;78.70;97905.66;105771;1254;74176;-28
2024/01/13 06:33:02;;;;;;;8.40;4.90;;;;;;;0.00;77.60;97904.13;105791;1253;73056;-28
2024/01/13 06:35:30;;;;;;;7.50;5.00;;;;;;;0.23;75.98;97903.35;105675;1254;61170;-28
2024/01/13 06:37:56;;;;;;;8.90;5.40;;;;;;;0.23;76.15;97907.62;105905;1254;61102;-28
2024/01/13 06:40:23;;;;;;;8.10;4.90;;;;;;;0.11;76.02;97909.48;105818;1254;73764;-28
2024/01/13 06:42:50;;;;;;;8.80;5.90;;;;;;;0.04;76.64;97916.72;105809;1257;74080;-28
2024/01/13 06:45:17;;;;;;;7.60;5.40;;;;;;;-0.26;77.46;97910.50;105844;1254;73510;-28
2024/01/13 06:47:44;;;;;;;8.40;4.80;;;;;;;0.23;76.32;97917.15;105837;1254;61049;-28
2024/01/13 06:50:11;;;;;;;9.90;6.10;;;;;;;0.55;74.38;97922.87;105633;1259;61153;-29
2024/01/13 06:52:38;;;;;;;7.00;4.80;;;;;;;0.33;75.28;97926.20;105767;1254;73589;-28
2024/01/13 06:55:07;;;;;;;13.30;5.70;;;;;;;0.19;75.90;97924.55;105825;1254;74234;-28
2024/01/13 06:57:34;;;;;;;7.70;5.60;;;;;;;0.07;76.56;97924.56;105684;1254;72526;-28
2024/01/13 07:00:01;;;;;;;9.50;5.30;;;;;;;-0.05;76.80;97926.76;105778;1257;61010;-28
2024/01/13 07:02:32;;;;;;;7.20;5.20;;;;;;;0.31;75.78;97920.80;105669;1255;61119;-28
2024/01/13 07:05:01;;;;;;;6.90;5.20;;;;;;;0.50;74.63;97926.73;105801;1254;73767;-28
2024/01/13 07:07:28;;;;;;;8.70;4.90;;;;;;;0.58;74.20;97933.08;105572;1260;74123;-28
2024/01/13 07:09:55;;;;;;;8.10;5.30;;;;;;;0.44;74.49;97920.74;105845;1255;72456;-28
2024/01/13 07:12:22;;;;;;;7.70;5.10;;;;;;;0.24;75.71;97926.51;105810;1253;61036;-28
2024/01/13 07:14:49;;;;;;;9.50;5.50;;;;;;;0.21;75.66;97910.32;105658;1257;61080;-28
2024/01/13 07:17:16;;;;;;;7.70;4.60;;;;;;;0.07;75.88;97911.79;105742;1254;73828;-28
2024/01/13 07:19:42;;;;;;;6.20;4.20;;;;;;;0.50;74.32;97922.80;105789;1257;74293;-28
2024/01/13 07:22:10;;;;;;;6.40;4.70;;;;;;;0.48;73.59;97917.09;105665;1254;72496;-28
2024/01/13 07:24:37;;;;;;;9.10;5.30;;;;;;;0.32;74.36;97927.11;105864;1254;61141;-28
2024/01/13 07:27:05;;;;;;;6.10;4.80;;;;;;;0.28;74.58;97928.84;105870;1257;61170;-28
2024/01/13 07:29:32;;;;;;;6.30;4.80;;;;;;;0.11;75.23;97925.38;105855;1254;73788;-28
2024/01/13 07:31:59;;;;;;;6.70;4.30;;;;;;;0.15;75.47;97936.55;105714;1254;74297;-28
2024/01/13 07:34:26;;;;;;;7.00;4.50;;;;;;;0.67;73.49;97931.23;105843;1257;72641;-28
2024/01/13 07:36:53;;;;;;;8.10;5.10;;;;;;;0.72;72.53;97927.33;105811;1254;61062;-28
2024/01/13 07:39:20;;;;;;;6.20;4.70;;;;;;;0.63;72.81;97935.73;105754;1257;61163;-28
2024/01/13 07:41:51;;;;;;;7.80;4.90;;;;;;;0.40;73.79;97927.66;105692;1254;74215;-28
2024/01/13 07:44:18;;;;;;;6.30;4.00;;;;;;;0.22;74.28;97934.80;105837;1254;74337;-28
2024/01/13 07:46:45;;;;;;;6.40;4.40;;;;;;;0.09;74.50;97940.98;105816;1253;72641;-28
2024/01/13 07:49:12;;;;;;;6.40;4.30;;;;;;;0.21;74.28;97953.64;105799;1257;61080;-28
2024/01/13 07:51:39;;;;;;;4.50;3.40;;;;;;;0.56;72.38;97948.61;105860;1257;61054;-28
2024/01/13 07:54:06;;;;;;;4.70;3.30;;;;;;;0.35;72.88;97948.41;105841;1254;74203;-28
2024/01/13 07:56:33;;;;;;;5.20;3.20;;;;;;;0.30;73.36;97950.09;105736;1258;74369;-28
2024/01/13 07:59:03;;;;;;;5.30;3.80;;;;;;;0.19;74.19;97967.73;105708;1254;72722;-28
2024/01/13 08:01:30;;;;;;;4.70;2.70;;;;;;;0.08;74.79;97971.61;105607;1254;61115;-28
2024/01/13 08:04:06;;;;;;;3.60;2.20;;;;;;;0.00;75.48;97959.07;105830;1254;61192;-28
2024/01/13 08:06:33;;;;;;;2.80;2.10;;;;;;;0.38;73.85;97973.18;105808;1257;73853;-28
2024/01/13 08:09:03;;;;;;;5.30;2.90;;;;;;;0.27;73.34;97961.70;105733;1254;74215;-28
2024/01/13 08:11:30;;;;;;;4.00;2.40;;;;;;;0.25;73.09;97975.62;105608;1254;71199;-28
2024/01/13 08:14:06;;;;;;;3.00;2.00;;;;;;;0.07;73.58;97975.06;105789;1254;61032;-28
2024/01/13 08:16:33;;;;;;;3.00;2.10;;;;;;;-0.08;74.00;97977.77;105448;1254;158679;-28
2024/01/13 08:19:03;;;;;;;2.20;1.60;;;;;;;0.06;72.87;97977.70;105789;1254;73905;-28
2024/01/13 08:21:30;;;;;;;2.40;1.70;;;;;;;0.18;72.18;97972.09;105632;1257;74345;-28
2024/01/13 08:24:08;;;;;;;1.70;1.50;;;;;;;0.40;71.35;97989.79;105636;1253;73225;-28
2024/01/13 08:26:35;;;;;;;5.00;3.90;;;;;;;0.29;71.48;97994.84;105575;1254;61167;-28
2024/01/13 08:29:02;;;;;;;3.40;1.70;;;;;;;0.23;71.66;98003.23;105724;1254;61065;-28
2024/01/13 08:31:30;;;;;;;3.90;1.70;;;;;;;0.09;72.02;98001.95;105861;1254;74239;-28
2024/01/13 08:34:10;;;;;;;4.50;2.00;;;;;;;-0.12;72.13;98003.56;105879;1254;74219;-28
2024/01/13 08:36:40;;;;;;;2.70;1.70;;;;;;;-0.03;72.16;98016.42;105729;1253;72681;-28
2024/01/13 08:39:07;;;;;;;3.70;1.70;;;;;;;0.34;71.30;98012.67;105715;1259;61172;-28
2024/01/13 08:41:34;;;;;;;3.00;2.10;;;;;;;0.58;69.76;98014.72;105812;1257;61170;-28
2024/01/13 08:44:02;;;;;;;1.90;1.30;;;;;;;0.67;69.47;98022.62;105846;1257;73827;-28
2024/01/13 08:46:29;;;;;;;2.50;1.60;;;;;;;0.68;69.05;98018.30;105695;1256;74354;-28
2024/01/13 08:48:56;;;;;;;2.50;1.80;;;;;;;0.61;69.60;98019.71;105846;1256;73102;-28
2024/01/13 08:51:24;;;;;;;3.50;1.70;;;;;;;0.60;69.76;98031.39;105716;1254;61071;-28
2024/01/13 08:54:05;;;;;;;4.50;1.60;;;;;;;0.39;70.55;98029.29;105819;1257;61141;-28
2024/01/13 08:56:38;;;;;;;2.90;1.40;;;;;;;-0.15;74.62;98030.38;105710;1259;72520;-28
2024/01/13 08:59:09;;;;;;;2.60;1.90;;;;;;;0.33;75.83;98042.77;105708;1254;74169;-28
2024/01/13 09:01:35;;;;;;;2.80;1.80;;;;;;;0.39;75.63;98043.31;105733;1259;71657;-28
2024/01/13 09:04:09;;;;;;;2.30;1.50;;;;;;;0.36;75.78;98050.13;105779;1254;61116;-28
2024/01/13 09:06:38;;;;;;;3.00;1.70;;;;;;;0.22;75.92;98049.84;105699;1259;61126;-28
2024/01/13 09:09:05;;;;;;;1.50;1.10;;;;;;;-0.11;77.50;98055.21;105828;1254;73696;-28
2024/01/13 09:11:33;;;;;;;4.10;1.60;;;;;;;-0.27;79.23;98055.41;105682;1254;74763;-28
2024/01/13 09:14:13;;;;;;;1.70;1.10;;;;;;;-0.19;78.21;98052.39;105486;1254;71474;-28
2024/01/13 09:16:44;;;;;;;2.90;1.80;;;;;;;0.28;75.98;98056.05;105446;1254;61055;-28
2024/01/13 09:19:11;;;;;;;2.30;1.60;;;;;;;0.20;74.67;98059.88;105676;1254;61068;-28
2024/01/13 09:21:39;;;;;;;1.70;1.30;;;;;;;0.08;74.34;98056.94;105668;1253;72976;-28
2024/01/13 09:24:11;;;;;;;1.80;1.10;;;;;;;-0.02;73.96;98059.83;105692;1254;74350;-28
2024/01/13 09:26:43;;;;;;;2.90;1.10;;;;;;;0.09;73.77;98058.27;105599;1259;72467;-28
2024/01/13 09:29:15;;;;;;;2.20;1.20;;;;;;;0.16;72.53;98058.56;105681;1260;61708;-28
2024/01/13 09:31:42;;;;;;;1.60;1.00;;;;;;;0.17;71.72;98049.30;105848;1253;61098;-28
2024/01/13 09:34:10;;;;;;;1.70;1.10;;;;;;;0.59;70.29;98063.56;105692;1254;73885;-28
2024/01/13 09:36:41;;;;;;;2.40;1.00;;;;;;;0.79;68.16;98049.26;105685;1259;74172;-28
2024/01/13 09:39:11;;;;;;;2.00;0.80;;;;;;;0.58;68.74;98054.55;105690;1260;71703;-28
2024/01/13 09:41:39;;;;;;;1.20;0.70;;;;;;;0.49;68.93;98043.27;105646;1254;61872;-28
2024/01/13 09:44:21;;;;;;;2.00;1.20;;;;;;;0.22;69.48;98050.06;105644;1254;61317;-28
2024/01/13 09:46:51;;;;;;;1.30;0.90;;;;;;;0.36;68.98;98047.20;105525;1254;72738;-28
2024/01/13 09:49:18;;;;;;;7.90;1.00;;;;;;;0.20;70.27;98049.97;105615;1254;74128;-30
2024/01/13 09:51:46;;;;;;;1.20;0.80;;;;;;;0.04;70.41;98052.89;105659;1254;72480;-30
2024/01/13 09:54:27;;;;;;;1.20;0.80;;;;;;;0.46;70.08;98063.61;105637;1254;61192;-30
2024/01/13 09:56:55;;;;;;;1.20;0.60;;;;;;;0.72;68.18;98043.66;105404;1254;61048;-30
2024/01/13 09:59:25;;;;;;;1.00;0.80;;;;;;;0.75;67.41;98043.17;105717;1258;72720;-30
2024/01/13 10:01:52;;;;;;;1.50;0.80;;;;;;;0.37;68.45;98052.67;105657;1255;75645;-30
2024/01/13 10:04:19;;;;;;;1.00;0.80;;;;;;;0.37;68.02;98052.15;105684;1254;74111;-30
2024/01/13 10:06:47;;;;;;;1.90;0.90;;;;;;;-0.15;68.67;98046.06;105607;1254;61097;-30
2024/01/13 10:09:15;;;;;;;1.10;1.00;;;;;;;-0.37;69.94;98047.92;105370;1254;61173;-30
2024/01/13 10:11:59;;;;;;;3.00;1.30;;;;;;;-0.54;71.13;98058.48;105774;1254;73670;-29
2024/01/13 10:14:27;;;;;;;1.40;1.10;;;;;;;-0.54;72.61;98076.73;105643;1254;73504;-29
2024/01/13 10:16:55;;;;;;;1.20;1.00;;;;;;;-0.34;72.95;98090.75;105749;1253;73145;-29
2024/01/13 10:19:23;;;;;;;2.10;1.40;;;;;;;-0.35;73.41;98084.13;105736;1253;61042;-29
2024/01/13 10:21:54;;;;;;;1.90;1.20;;;;;;;-0.58;75.24;98105.10;105687;1259;61125;-29
2024/01/13 10:24:20;;;;;;;1.00;0.80;;;;;;;-0.36;74.84;98114.01;105687;1254;73745;-29
2024/01/13 10:26:47;;;;;;;3.20;1.90;;;;;;;-0.14;73.61;98115.48;105872;1254;74406;-29
2024/01/13 10:29:15;;;;;;;1.90;1.30;;;;;;;-0.62;75.75;98122.00;105796;1254;74029;-29
2024/01/13 10:31:41;;;;;;;2.10;1.60;;;;;;;-0.59;75.58;98126.63;105745;1254;62636;-29
2024/01/13 10:34:10;;;;;;;2.60;1.90;;;;;;;-0.08;73.53;98125.52;105778;1254;61788;-29
2024/01/13 10:36:38;;;;;;;5.80;2.00;;;;;;;-0.39;73.19;98132.25;105866;1254;74006;-29
2024/01/13 10:39:05;;;;;;;2.10;1.50;;;;;;;-0.03;70.89;98134.69;105811;1254;74459;-29
2024/01/13 10:41:32;;;;;;;3.50;2.20;;;;;;;-0.24;70.02;98132.37;105725;1254;73868;-29
2024/01/13 10:44:03;;;;;;;5.80;2.60;;;;;;;-0.49;68.03;98140.23;105667;1254;61118;-29
2024/01/13 10:46:32;;;;;;;2.30;1.60;;;;;;;-0.98;66.08;98138.91;105735;1256;61055;-29
2024/01/13 10:49:17;;;;;;;4.00;2.40;;;;;;;-1.03;65.24;98147.51;105687;1254;73775;-29
2024/01/13 10:51:50;;;;;;;6.00;2.10;;;;;;;-1.14;65.50;98150.78;105703;1254;74377;-29
2024/01/13 10:54:16;;;;;;;6.00;3.50;;;;;;;-1.22;65.64;98157.98;105515;1261;72699;-29
2024/01/13 10:56:44;;;;;;;6.10;2.80;;;;;;;-0.93;65.22;98159.97;105482;1259;61071;-29
2024/01/13 10:59:11;;;;;;;3.00;2.00;;;;;;;-0.90;65.00;98158.45;105748;1254;61124;-29
2024/01/13 11:01:38;;;;;;;5.70;3.00;;;;;;;-0.88;65.28;98157.71;105617;1254;73728;-29
2024/01/13 11:04:05;;;;;;;4.50;3.00;;;;;;;-1.25;66.26;98159.81;105754;1254;74454;-29
2024/01/13 11:06:32;;;;;;;6.30;2.90;;;;;;;-1.19;66.28;98163.94;105653;1254;74253;-30
2024/01/13 11:09:01;;;;;;;3.60;2.20;;;;;;;-1.29;66.22;98162.35;105826;1254;61080;-29
2024/01/13 11:11:31;;;;;;;7.50;2.90;;;;;;;-1.19;66.70;98162.59;105736;1257;61118;-29
2024/01/13 11:14:21;;;;;;;7.40;2.60;;;;;;;-0.65;64.93;98161.87;105685;1254;73731;-29
2024/01/13 11:16:48;;;;;;;4.60;2.40;;;;;;;-0.88;65.63;98160.92;105665;1260;74279;-33
2024/01/13 11:19:16;;;;;;;6.00;2.70;;;;;;;-0.58;64.91;98162.87;105801;1254;73852;-29
2024/01/13 11:21:48;;;;;;;7.40;3.60;;;;;;;-0.99;66.54;98166.58;105659;1254;61135;-29
2024/01/13 11:24:17;;;;;;;5.00;2.80;;;;;;;-0.80;66.24;98164.96;105778;1256;61170;-29
2024/01/13 11:26:46;;;;;;;3.90;2.70;;;;;;;-0.97;66.56;98170.08;105811;1253;74687;-29
2024/01/13 11:29:21;;;;;;;4.80;3.00;;;;;;;-0.97;66.66;98171.08;105771;1254;74408;-29
2024/01/13 11:31:53;;;;;;;5.50;2.80;;;;;;;-0.95;66.80;98166.04;105693;1254;72623;-29
2024/01/13 11:34:21;;;;;;;8.50;3.90;;;;;;;-1.04;67.62;98169.70;105745;1254;61049;-29